Webcam Flughafen St.Gallen-Altenrhein

Live-Bilder und Zeitraffer LSZR / ACH.

 

Live aus Altenrhein
LIVE
LSZR 170450Z VRB01KT CAVOK 15/15 Q1018 NOSIG RMK A
Zeitraffer heute
2019-09-17 00:14:43
LSZR 162150Z AUTO 25005KT 9999 SCT060 SCT080 OVC170 20/17 Q1019